Terminal Aerodrome Forecast
Issued by NWS

Home | Current Version | Previous Version | Text Only | Print | Product List | Glossary On
Versions: 1 2 3 4 5 6 7 8 9 10 11 12 13 14 15 16 17 18 19 20
000
FTUS43 KILX 160300 AAB
TAFCMI
TAF AMD
KCMI 160331Z 1604/1624 34007KT P6SM SCT007 BKN015
     FM160600 34004KT 5SM BR SCT005
     FM161100 35003KT 1/2SM FG OVC002
     FM161300 34005KT P6SM SCT005=

USA.gov is the U.S. government's official web portal to all federal, state and local government web resources and services.